Time;durP1;ratioP1;P1;durP2;ratioP2;P2;SDS_P1;SDS_P2;PMS_P1;PMS_P2;Temp;Humidity;BMP_temperature;BMP_pressure;BME280_temperature;BME280_humidity;BME280_pressure;Samples;Min_cycle;Max_cycle;Signal;HPM_P1;HPM_P2
2021/12/13 00:01:43;;;;;;;42.37;25.17;;;;;;;;;;5014216;28;20025;-69
2021/12/13 00:04:11;;;;;;;38.45;24.10;;;;;;;;;;5012922;28;20038;-69
2021/12/13 00:06:40;;;;;;;44.27;27.23;;;;;;;;;;5014065;28;20060;-71
2021/12/13 00:09:08;;;;;;;45.37;26.93;;;;;;;;;;5014059;28;20160;-69
2021/12/13 00:11:35;;;;;;;40.33;26.33;;;;;;;;;;5013785;28;20045;-70
2021/12/13 00:14:15;;;;;;;43.30;25.30;;;;;;;;;;5013622;28;20022;-69
2021/12/13 00:16:44;;;;;;;38.00;25.07;;;;;;;;;;5013938;28;20022;-69
2021/12/13 00:19:12;;;;;;;47.93;25.73;;;;;;;;;;5013685;28;20490;-69
2021/12/13 00:21:41;;;;;;;45.60;26.07;;;;;;;;;;5013693;28;20101;-69
2021/12/13 00:24:09;;;;;;;44.97;26.77;;;;;;;;;;5013484;28;20026;-69
2021/12/13 00:26:37;;;;;;;38.20;24.37;;;;;;;;;;5013384;28;20022;-69
2021/12/13 00:29:15;;;;;;;40.40;24.77;;;;;;;;;;5013644;28;20210;-69
2021/12/13 00:31:48;;;;;;;39.10;23.97;;;;;;;;;;5013998;28;20026;-69
2021/12/13 00:34:32;;;;;;;46.97;26.63;;;;;;;;;;5013424;28;20046;-69
2021/12/13 00:37:04;;;;;;;38.30;23.60;;;;;;;;;;5012096;28;20426;-69
2021/12/13 00:39:36;;;;;;;42.40;25.10;;;;;;;;;;5013431;28;20108;-69
2021/12/13 00:42:04;;;;;;;39.05;25.02;;;;;;;;;;5011719;28;20032;-69
2021/12/13 00:44:32;;;;;;;40.27;24.70;;;;;;;;;;5011371;28;20018;-69
2021/12/13 00:47:01;;;;;;;40.83;24.80;;;;;;;;;;5012361;28;20033;-69
2021/12/13 00:49:28;;;;;;;42.60;24.87;;;;;;;;;;5011211;28;20033;-69
2021/12/13 00:51:56;;;;;;;39.37;24.60;;;;;;;;;;5012181;28;20026;-69
2021/12/13 00:54:33;;;;;;;38.63;23.27;;;;;;;;;;5011451;28;20026;-69
2021/12/13 00:57:03;;;;;;;36.43;22.63;;;;;;;;;;5013234;28;20495;-69
2021/12/13 00:59:44;;;;;;;32.33;19.67;;;;;;;;;;5012038;28;20025;-69
2021/12/13 01:02:10;;;;;;;29.53;18.47;;;;;;;;;;5012944;28;20034;-69
2021/12/13 01:04:49;;;;;;;30.70;18.17;;;;;;;;;;5012014;28;20125;-69
2021/12/13 01:07:24;;;;;;;27.97;16.73;;;;;;;;;;5013210;28;20030;-68
2021/12/13 01:10:07;;;;;;;29.87;17.20;;;;;;;;;;5011743;28;20030;-69
2021/12/13 01:12:34;;;;;;;24.10;14.70;;;;;;;;;;5011935;28;20026;-69
2021/12/13 01:15:04;;;;;;;20.53;12.00;;;;;;;;;;5013092;28;20109;-70
2021/12/13 01:17:53;;;;;;;21.20;12.20;;;;;;;;;;5012884;28;20026;-69
2021/12/13 01:20:30;;;;;;;19.23;11.60;;;;;;;;;;5012348;28;20018;-69
2021/12/13 01:23:04;;;;;;;21.93;13.80;;;;;;;;;;5011813;28;20034;-69
2021/12/13 01:28:39;;;;;;;23.43;14.30;;;;;;;;;;4952443;28;20047;-69
2021/12/13 01:31:10;;;;;;;28.27;15.20;;;;;;;;;;5002520;28;20549;-69
2021/12/13 01:33:40;;;;;;;27.40;14.97;;;;;;;;;;5011976;28;20038;-69
2021/12/13 01:36:07;;;;;;;23.00;13.83;;;;;;;;;;5012396;28;20064;-69
2021/12/13 01:38:36;;;;;;;22.10;13.33;;;;;;;;;;5011023;28;20022;-69
2021/12/13 01:41:08;;;;;;;24.23;14.30;;;;;;;;;;5012700;28;20387;-69
2021/12/13 01:43:36;;;;;;;16.13;9.40;;;;;;;;;;5012723;28;20504;-69
2021/12/13 01:46:02;;;;;;;11.50;6.23;;;;;;;;;;5012830;28;20025;-69
2021/12/13 01:48:32;;;;;;;8.50;4.50;;;;;;;;;;5011036;28;20451;-69
2021/12/13 01:51:06;;;;;;;6.93;3.80;;;;;;;;;;5012293;28;20053;-69
2021/12/13 01:53:38;;;;;;;6.93;3.77;;;;;;;;;;5012854;28;20382;-69
2021/12/13 01:56:11;;;;;;;17.63;10.97;;;;;;;;;;5011918;28;20431;-69
2021/12/13 01:58:46;;;;;;;23.90;14.47;;;;;;;;;;5009540;28;20508;-69
2021/12/13 02:01:16;;;;;;;28.40;15.80;;;;;;;;;;5010775;28;20370;-69
2021/12/13 02:03:42;;;;;;;26.73;16.43;;;;;;;;;;5012861;28;20025;-69
2021/12/13 02:06:08;;;;;;;27.13;17.70;;;;;;;;;;5015829;28;20029;-69
2021/12/13 02:08:35;;;;;;;27.20;18.07;;;;;;;;;;5015614;28;20037;-69
2021/12/13 02:11:01;;;;;;;29.60;18.47;;;;;;;;;;5014782;28;20486;-69
2021/12/13 02:13:38;;;;;;;29.40;17.73;;;;;;;;;;5014202;28;20033;-69
2021/12/13 02:18:56;;;;;;;28.73;18.20;;;;;;;;;;5014325;28;20105;-69
2021/12/13 02:21:31;;;;;;;30.17;17.98;;;;;;;;;;5012830;28;20022;-69
2021/12/13 02:24:02;;;;;;;27.13;16.83;;;;;;;;;;5013352;28;20033;-69
2021/12/13 02:26:30;;;;;;;25.73;16.43;;;;;;;;;;5014488;28;20018;-70
2021/12/13 02:29:07;;;;;;;26.37;16.43;;;;;;;;;;5015274;28;20038;-69
2021/12/13 02:31:35;;;;;;;28.47;15.83;;;;;;;;;;5014680;28;20421;-70
2021/12/13 02:34:06;;;;;;;25.27;16.43;;;;;;;;;;5015564;28;20053;-69
2021/12/13 02:36:35;;;;;;;24.83;15.57;;;;;;;;;;5015320;28;20419;-69
2021/12/13 02:39:05;;;;;;;24.60;16.47;;;;;;;;;;5015225;28;20217;-69
2021/12/13 02:41:31;;;;;;;25.00;16.07;;;;;;;;;;5015157;28;20026;-69
2021/12/13 02:44:02;;;;;;;25.93;15.20;;;;;;;;;;5014185;28;20394;-69
2021/12/13 02:46:28;;;;;;;20.07;12.77;;;;;;;;;;5014321;28;20101;-69
2021/12/13 02:48:59;;;;;;;17.73;10.77;;;;;;;;;;5014391;28;20041;-69
2021/12/13 02:51:33;;;;;;;14.63;8.20;;;;;;;;;;5014084;28;20386;-69
2021/12/13 02:54:10;;;;;;;13.73;8.80;;;;;;;;;;5015458;28;20497;-69
2021/12/13 02:56:42;;;;;;;18.33;11.33;;;;;;;;;;5014847;28;20053;-69
2021/12/13 02:59:09;;;;;;;16.93;11.23;;;;;;;;;;5014572;28;20026;-68
2021/12/13 03:01:35;;;;;;;15.90;8.93;;;;;;;;;;5013480;28;20037;-69
2021/12/13 03:04:06;;;;;;;12.77;7.50;;;;;;;;;;5014989;28;20026;-69
2021/12/13 03:06:34;;;;;;;12.90;7.43;;;;;;;;;;5013603;28;20018;-69
2021/12/13 03:09:01;;;;;;;14.30;8.90;;;;;;;;;;5013634;28;20026;-69
2021/12/13 03:11:32;;;;;;;19.53;10.50;;;;;;;;;;5012821;28;20025;-69
2021/12/13 03:14:00;;;;;;;16.77;11.10;;;;;;;;;;5013086;28;20018;-69
2021/12/13 03:16:52;;;;;;;16.73;10.63;;;;;;;;;;5014379;28;20088;-69
2021/12/13 03:19:38;;;;;;;18.70;10.83;;;;;;;;;;5012468;28;20056;-69
2021/12/13 03:22:23;;;;;;;17.17;10.60;;;;;;;;;;5009900;28;20486;-69
2021/12/13 03:25:04;;;;;;;18.23;11.13;;;;;;;;;;5014181;28;20025;-69
2021/12/13 03:27:50;;;;;;;21.00;10.67;;;;;;;;;;5014483;28;20026;-69
2021/12/13 03:30:26;;;;;;;19.10;10.87;;;;;;;;;;5012835;28;20120;-69
2021/12/13 03:32:52;;;;;;;20.43;12.23;;;;;;;;;;5013258;28;20501;-69
2021/12/13 03:35:22;;;;;;;19.63;13.10;;;;;;;;;;5013152;28;20077;-69
2021/12/13 03:37:54;;;;;;;21.90;12.83;;;;;;;;;;5013685;28;20374;-69
2021/12/13 03:40:21;;;;;;;20.27;13.00;;;;;;;;;;5012844;28;20018;-69
2021/12/13 03:42:49;;;;;;;18.43;11.53;;;;;;;;;;5013018;28;20222;-69
2021/12/13 03:45:20;;;;;;;20.37;12.63;;;;;;;;;;5013101;28;20050;-69
2021/12/13 03:47:50;;;;;;;21.07;12.67;;;;;;;;;;5012285;28;20087;-69
2021/12/13 03:50:19;;;;;;;19.50;12.47;;;;;;;;;;5013719;28;20110;-69
2021/12/13 03:52:46;;;;;;;26.77;13.07;;;;;;;;;;5012881;28;20025;-69
2021/12/13 03:55:13;;;;;;;22.37;14.07;;;;;;;;;;5013811;28;20028;-69
2021/12/13 03:57:45;;;;;;;23.93;15.30;;;;;;;;;;5012443;28;20045;-69
2021/12/13 04:00:13;;;;;;;24.93;15.13;;;;;;;;;;5014143;28;20466;-69
2021/12/13 04:02:39;;;;;;;22.80;14.80;;;;;;;;;;5012691;28;20513;-69
2021/12/13 04:05:18;;;;;;;23.40;15.50;;;;;;;;;;5013243;28;20026;-69
2021/12/13 04:07:48;;;;;;;23.50;14.40;;;;;;;;;;5012277;28;20021;-70
2021/12/13 04:10:17;;;;;;;27.70;14.57;;;;;;;;;;5012948;28;20378;-69
2021/12/13 04:12:47;;;;;;;25.43;15.13;;;;;;;;;;5012279;28;20014;-69
2021/12/13 04:15:17;;;;;;;22.83;15.27;;;;;;;;;;5012074;28;20017;-70
2021/12/13 04:18:12;;;;;;;23.67;14.53;;;;;;;;;;5013179;28;20375;-69
2021/12/13 04:20:39;;;;;;;26.57;15.50;;;;;;;;;;5012191;28;20044;-69
2021/12/13 04:23:16;;;;;;;25.10;15.27;;;;;;;;;;5012610;28;20034;-69
2021/12/13 04:25:45;;;;;;;29.10;15.93;;;;;;;;;;5012744;28;20033;-69
2021/12/13 04:28:16;;;;;;;29.77;15.80;;;;;;;;;;5012608;28;20026;-69
2021/12/13 04:30:42;;;;;;;25.27;16.07;;;;;;;;;;5012255;28;20030;-69
2021/12/13 04:33:13;;;;;;;25.27;15.53;;;;;;;;;;5011874;28;20064;-69
2021/12/13 04:35:41;;;;;;;22.97;14.27;;;;;;;;;;5011832;28;20160;-69
2021/12/13 04:38:07;;;;;;;19.17;13.10;;;;;;;;;;5012086;28;20020;-69
2021/12/13 04:40:40;;;;;;;22.83;12.87;;;;;;;;;;5012631;28;20036;-69
2021/12/13 04:43:09;;;;;;;23.75;14.27;;;;;;;;;;5012027;28;20022;-69
2021/12/13 04:45:35;;;;;;;21.80;13.47;;;;;;;;;;5012196;28;20030;-69
2021/12/13 04:48:07;;;;;;;24.47;14.97;;;;;;;;;;5012264;28;20108;-69
2021/12/13 04:50:37;;;;;;;21.65;14.10;;;;;;;;;;5012566;28;20054;-69
2021/12/13 04:53:03;;;;;;;23.20;14.67;;;;;;;;;;5011907;28;20363;-70
2021/12/13 04:55:34;;;;;;;21.60;13.60;;;;;;;;;;5012018;28;20088;-69
2021/12/13 04:58:03;;;;;;;20.13;13.87;;;;;;;;;;5012102;28;20041;-69
2021/12/13 05:00:31;;;;;;;22.83;13.93;;;;;;;;;;5012070;28;20113;-70
2021/12/13 05:03:01;;;;;;;20.53;12.57;;;;;;;;;;5012025;28;20030;-69
2021/12/13 05:05:27;;;;;;;17.47;11.50;;;;;;;;;;5012796;28;20028;-69
2021/12/13 05:07:54;;;;;;;19.40;11.97;;;;;;;;;;5011955;28;20057;-70
2021/12/13 05:10:25;;;;;;;18.83;12.23;;;;;;;;;;5013080;28;20076;-69
2021/12/13 05:13:09;;;;;;;19.47;13.87;;;;;;;;;;5011471;28;20036;-70
2021/12/13 05:15:38;;;;;;;17.77;13.60;;;;;;;;;;5012663;28;20026;-69
2021/12/13 05:18:06;;;;;;;24.13;13.90;;;;;;;;;;5012070;28;20030;-69
2021/12/13 05:20:38;;;;;;;20.47;13.83;;;;;;;;;;5011756;28;20022;-70
2021/12/13 05:23:07;;;;;;;17.43;11.77;;;;;;;;;;5012499;28;20036;-69
2021/12/13 05:25:41;;;;;;;21.70;13.37;;;;;;;;;;5012429;28;20093;-69
2021/12/13 05:28:09;;;;;;;22.07;12.87;;;;;;;;;;5011796;28;20378;-69
2021/12/13 05:30:36;;;;;;;20.00;13.37;;;;;;;;;;5012250;28;20021;-69
2021/12/13 05:33:06;;;;;;;19.27;12.10;;;;;;;;;;5012197;28;20037;-69
2021/12/13 05:35:37;;;;;;;23.27;12.40;;;;;;;;;;5014197;28;20491;-69
2021/12/13 05:38:06;;;;;;;20.10;12.40;;;;;;;;;;5016574;28;20080;-70
2021/12/13 05:40:42;;;;;;;19.03;12.27;;;;;;;;;;5014909;28;20025;-70
2021/12/13 05:43:25;;;;;;;19.10;12.60;;;;;;;;;;5016662;28;20029;-69
2021/12/13 05:45:51;;;;;;;;;;;;;;;;;;5015544;28;20029;-69
2021/12/13 05:48:22;;;;;;;19.30;12.83;;;;;;;;;;5015655;28;20281;-69
2021/12/13 05:50:53;;;;;;;22.37;13.90;;;;;;;;;;5015643;28;20026;-69
2021/12/13 05:53:24;;;;;;;23.37;14.50;;;;;;;;;;5015239;28;20031;-69
2021/12/13 05:56:05;;;;;;;21.10;13.63;;;;;;;;;;5015884;28;20097;-69
2021/12/13 05:58:31;;;;;;;19.03;12.57;;;;;;;;;;5015714;28;20105;-69
2021/12/13 06:00:58;;;;;;;22.67;9.93;;;;;;;;;;5015112;28;20057;-69
2021/12/13 06:03:30;;;;;;;17.70;9.67;;;;;;;;;;5015296;28;20026;-69
2021/12/13 06:06:03;;;;;;;14.93;8.43;;;;;;;;;;5015807;28;20037;-69
2021/12/13 06:08:32;;;;;;;12.40;6.60;;;;;;;;;;5014990;28;20026;-69
2021/12/13 06:11:07;;;;;;;10.07;6.33;;;;;;;;;;5015646;28;20108;-69
2021/12/13 06:13:42;;;;;;;11.40;7.20;;;;;;;;;;5015538;28;20119;-69
2021/12/13 06:16:17;;;;;;;11.60;6.73;;;;;;;;;;5014964;28;20025;-69
2021/12/13 06:19:00;;;;;;;11.87;6.10;;;;;;;;;;5014960;28;20033;-70
2021/12/13 06:21:26;;;;;;;;;;;;;;;;;;5014855;28;20026;-69
2021/12/13 06:23:52;;;;;;;12.37;6.90;;;;;;;;;;5015329;28;19905;-69
2021/12/13 06:26:18;;;;;;;15.77;7.23;;;;;;;;;;5015822;28;20061;-69
2021/12/13 06:28:46;;;;;;;13.57;6.30;;;;;;;;;;5015818;28;20493;-69
2021/12/13 06:31:22;;;;;;;10.80;6.30;;;;;;;;;;5015486;28;20332;-69
2021/12/13 06:33:48;;;;;;;12.90;6.03;;;;;;;;;;5014882;28;20121;-69
2021/12/13 06:36:14;;;;;;;11.80;6.00;;;;;;;;;;5014618;28;20105;-69
2021/12/13 06:38:40;;;;;;;12.13;6.27;;;;;;;;;;5014442;28;20508;-69
2021/12/13 06:41:08;;;;;;;7.40;4.53;;;;;;;;;;5015040;28;20022;-69
2021/12/13 06:43:35;;;;;;;13.30;4.70;;;;;;;;;;5015291;28;20026;-69
2021/12/13 06:46:03;;;;;;;9.90;4.47;;;;;;;;;;5014454;28;20022;-69
2021/12/13 06:48:43;;;;;;;5.57;3.80;;;;;;;;;;5014869;28;20073;-69
2021/12/13 06:51:10;;;;;;;7.93;4.23;;;;;;;;;;5015181;28;20076;-69
2021/12/13 06:53:36;;;;;;;6.97;4.03;;;;;;;;;;5013871;28;20092;-69
2021/12/13 06:56:19;;;;;;;10.87;6.03;;;;;;;;;;5013546;28;20045;-69
2021/12/13 06:58:45;;;;;;;;;;;;;;;;;;5015430;28;20033;-68
2021/12/13 07:01:11;;;;;;;17.77;7.10;;;;;;;;;;5015275;28;19905;-69
2021/12/13 07:03:37;;;;;;;18.77;7.90;;;;;;;;;;5014911;28;20489;-69
2021/12/13 07:06:05;;;;;;;33.20;8.50;;;;;;;;;;5014682;28;20421;-68
2021/12/13 07:08:35;;;;;;;25.53;8.30;;;;;;;;;;5014963;28;20040;-69
2021/12/13 07:11:12;;;;;;;22.10;8.90;;;;;;;;;;5015025;28;20095;-68
2021/12/13 07:13:42;;;;;;;20.40;8.43;;;;;;;;;;5014541;28;20109;-68
2021/12/13 07:16:15;;;;;;;14.70;8.30;;;;;;;;;;5014722;28;20519;-68
2021/12/13 07:18:49;;;;;;;15.52;9.77;;;;;;;;;;5014894;28;20060;-69
2021/12/13 07:21:21;;;;;;;16.40;9.30;;;;;;;;;;5014759;28;20026;-69
2021/12/13 07:24:09;;;;;;;19.00;10.00;;;;;;;;;;5014511;28;20030;-69
2021/12/13 07:26:53;;;;;;;19.83;9.70;;;;;;;;;;5014892;28;20026;-69
2021/12/13 07:29:28;;;;;;;16.27;8.87;;;;;;;;;;5014534;28;20037;-68
2021/12/13 07:32:12;;;;;;;18.90;9.40;;;;;;;;;;5014286;28;20072;-68
2021/12/13 07:34:57;;;;;;;21.50;9.97;;;;;;;;;;5013976;28;20058;-69
2021/12/13 07:37:35;;;;;;;18.10;7.40;;;;;;;;;;5014261;28;20030;-69
2021/12/13 07:40:16;;;;;;;16.33;5.93;;;;;;;;;;5013897;28;20030;-69
2021/12/13 07:43:09;;;;;;;9.23;5.17;;;;;;;;;;5011246;28;20088;-70
2021/12/13 07:45:54;;;;;;;11.57;6.03;;;;;;;;;;4988392;28;20042;-69
2021/12/13 07:48:33;;;;;;;9.83;6.23;;;;;;;;;;5013446;28;20277;-69
2021/12/13 07:51:01;;;;;;;14.60;6.70;;;;;;;;;;5014007;28;20478;-70
2021/12/13 07:53:28;;;;;;;20.23;9.40;;;;;;;;;;5013832;28;20374;-70
2021/12/13 07:55:54;;;;;;;23.73;12.77;;;;;;;;;;5014084;28;20037;-68
2021/12/13 07:58:41;;;;;;;28.20;13.37;;;;;;;;;;5013603;28;20029;-68
2021/12/13 08:01:13;;;;;;;25.93;14.53;;;;;;;;;;5013976;28;20534;-69
2021/12/13 08:03:58;;;;;;;39.57;15.03;;;;;;;;;;5013596;28;20099;-68
2021/12/13 08:06:28;;;;;;;27.07;16.23;;;;;;;;;;5013630;28;20374;-67
2021/12/13 08:08:56;;;;;;;31.20;22.10;;;;;;;;;;5013869;28;20124;-69
2021/12/13 08:11:41;;;;;;;28.23;17.73;;;;;;;;;;5013541;28;20499;-68
2021/12/13 08:14:08;;;;;;;24.33;16.27;;;;;;;;;;5013403;28;20025;-68
2021/12/13 08:16:36;;;;;;;22.87;13.83;;;;;;;;;;5013799;28;20030;-68
2021/12/13 08:19:04;;;;;;;21.73;11.63;;;;;;;;;;5013606;28;20022;-68
2021/12/13 08:21:30;;;;;;;18.83;11.53;;;;;;;;;;5013758;28;20030;-69
2021/12/13 08:23:58;;;;;;;21.50;11.03;;;;;;;;;;5011106;28;20025;-68
2021/12/13 08:26:26;;;;;;;20.57;10.93;;;;;;;;;;5010841;28;20032;-69
2021/12/13 08:28:53;;;;;;;24.87;11.17;;;;;;;;;;5012545;28;20038;-70
2021/12/13 08:31:21;;;;;;;22.50;12.03;;;;;;;;;;5013341;28;20030;-70
2021/12/13 08:33:51;;;;;;;27.47;12.20;;;;;;;;;;5012893;28;20045;-69
2021/12/13 08:36:18;;;;;;;20.57;11.67;;;;;;;;;;5013282;28;20053;-71
2021/12/13 08:39:02;;;;;;;25.13;12.60;;;;;;;;;;5013123;28;20026;-71
2021/12/13 08:41:40;;;;;;;76.60;11.43;;;;;;;;;;5013134;28;20024;-74
2021/12/13 08:44:06;;;;;;;22.37;10.30;;;;;;;;;;5011630;28;20079;-73
2021/12/13 08:46:35;;;;;;;16.13;9.03;;;;;;;;;;5013120;28;20025;-75
2021/12/13 08:49:02;;;;;;;19.17;8.30;;;;;;;;;;5012914;28;20038;-74
2021/12/13 08:51:29;;;;;;;16.27;8.43;;;;;;;;;;5013410;28;20360;-74
2021/12/13 08:54:02;;;;;;;14.77;8.97;;;;;;;;;;5012152;28;20026;-73
2021/12/13 08:56:32;;;;;;;19.40;9.03;;;;;;;;;;5012252;28;20041;-75
2021/12/13 08:59:12;;;;;;;18.33;9.20;;;;;;;;;;5011842;28;20101;-75
2021/12/13 09:01:49;;;;;;;17.13;9.47;;;;;;;;;;5011408;28;20061;-78
2021/12/13 09:04:29;;;;;;;15.13;8.73;;;;;;;;;;5011664;28;20026;-79
2021/12/13 09:06:57;;;;;;;14.43;8.27;;;;;;;;;;5011828;28;20026;-78
2021/12/13 09:09:24;;;;;;;15.33;8.50;;;;;;;;;;5013007;28;20042;-76
2021/12/13 09:11:56;;;;;;;16.37;8.40;;;;;;;;;;5018549;28;20423;-76
2021/12/13 09:14:42;;;;;;;17.60;8.25;;;;;;;;;;5019090;28;20355;-78
2021/12/13 09:17:12;;;;;;;14.57;8.30;;;;;;;;;;5017422;28;20124;-79
2021/12/13 09:19:44;;;;;;;12.60;7.93;;;;;;;;;;5017225;28;20207;-76
2021/12/13 09:22:10;;;;;;;16.80;7.43;;;;;;;;;;5016959;28;20429;-78
2021/12/13 09:24:42;;;;;;;15.20;7.77;;;;;;;;;;5016333;28;20026;-77
2021/12/13 09:27:08;;;;;;;15.55;7.35;;;;;;;;;;5016722;28;20026;-77
2021/12/13 09:29:46;;;;;;;14.60;7.50;;;;;;;;;;5016459;28;20038;-76
2021/12/13 09:32:13;;;;;;;15.70;7.40;;;;;;;;;;5015878;28;20470;-77
2021/12/13 09:34:39;;;;;;;17.33;7.57;;;;;;;;;;5015555;28;20053;-78
2021/12/13 09:37:06;;;;;;;11.23;6.80;;;;;;;;;;5016259;28;20112;-78
2021/12/13 09:39:32;;;;;;;13.43;6.90;;;;;;;;;;5015819;28;20034;-78
2021/12/13 09:41:59;;;;;;;10.57;6.90;;;;;;;;;;5015340;28;20026;-77
2021/12/13 09:44:30;;;;;;;19.10;7.17;;;;;;;;;;5016223;28;20037;-78
2021/12/13 09:47:11;;;;;;;16.60;6.27;;;;;;;;;;5016798;28;20084;-78
2021/12/13 09:49:37;;;;;;;14.93;5.80;;;;;;;;;;5015641;28;20034;-79
2021/12/13 09:52:10;;;;;;;12.70;5.13;;;;;;;;;;5014099;28;20022;-77
2021/12/13 09:54:40;;;;;;;15.73;5.63;;;;;;;;;;5015099;28;20034;-75
2021/12/13 09:57:08;;;;;;;15.47;4.20;;;;;;;;;;5013896;28;20026;-78
2021/12/13 09:59:36;;;;;;;14.87;4.30;;;;;;;;;;5014434;28;20029;-75
2021/12/13 10:02:04;;;;;;;8.97;3.83;;;;;;;;;;5015579;28;20026;-78
2021/12/13 10:04:32;;;;;;;7.57;3.67;;;;;;;;;;5015353;28;20509;-76
2021/12/13 10:07:05;;;;;;;13.27;5.13;;;;;;;;;;5015913;28;20025;-78
2021/12/13 10:09:31;;;;;;;;;;;;;;;;;;5015353;28;20379;-78
2021/12/13 10:12:03;;;;;;;25.27;14.97;;;;;;;;;;5016126;28;19989;-78
2021/12/13 10:14:32;;;;;;;29.02;18.55;;;;;;;;;;5016082;28;20064;-78
2021/12/13 10:16:58;;;;;;;25.57;18.40;;;;;;;;;;5016129;28;20026;-79
2021/12/13 10:19:37;;;;;;;22.80;13.97;;;;;;;;;;5016246;28;20033;-79
2021/12/13 10:22:06;;;;;;;23.43;11.47;;;;;;;;;;5015533;28;20034;-75
2021/12/13 10:24:38;;;;;;;27.17;12.47;;;;;;;;;;5015958;28;20030;-76
2021/12/13 10:27:06;;;;;;;25.42;14.35;;;;;;;;;;5016094;28;20018;-79
2021/12/13 10:29:33;;;;;;;23.43;13.47;;;;;;;;;;5016009;28;20501;-79
2021/12/13 10:31:59;;;;;;;21.37;13.07;;;;;;;;;;5015791;28;20030;-79
2021/12/13 10:34:30;;;;;;;27.70;9.13;;;;;;;;;;5016027;28;20046;-78
2021/12/13 10:37:20;;;;;;;10.73;6.23;;;;;;;;;;5015643;28;20490;-78
2021/12/13 10:39:49;;;;;;;11.03;5.60;;;;;;;;;;5007929;28;20034;-79
2021/12/13 10:42:17;;;;;;;11.43;4.67;;;;;;;;;;5015799;28;20022;-78
2021/12/13 10:44:44;;;;;;;10.20;4.87;;;;;;;;;;5015427;28;20037;-77
2021/12/13 10:47:13;;;;;;;12.17;7.30;;;;;;;;;;5014025;28;20112;-76
2021/12/13 10:49:41;;;;;;;29.33;18.03;;;;;;;;;;5015481;28;20034;-76
2021/12/13 10:52:12;;;;;;;27.30;16.37;;;;;;;;;;5015264;28;20022;-77
2021/12/13 10:54:41;;;;;;;23.50;15.50;;;;;;;;;;5015640;28;20479;-76
2021/12/13 10:57:09;;;;;;;22.67;16.63;;;;;;;;;;5015064;28;20524;-77
2021/12/13 10:59:35;;;;;;;21.23;13.27;;;;;;;;;;5015408;28;20022;-76
2021/12/13 11:02:05;;;;;;;18.23;12.13;;;;;;;;;;5015329;28;20061;-76
2021/12/13 11:04:34;;;;;;;20.07;13.53;;;;;;;;;;5015614;28;20065;-77
2021/12/13 11:07:02;;;;;;;9.83;7.00;;;;;;;;;;5013855;28;20030;-76
2021/12/13 11:09:28;;;;;;;8.43;4.43;;;;;;;;;;5015227;28;20037;-76
2021/12/13 11:12:10;;;;;;;8.77;4.10;;;;;;;;;;5015155;28;20022;-76
2021/12/13 11:14:37;;;;;;;23.57;5.37;;;;;;;;;;5014807;28;20093;-77
2021/12/13 11:17:07;;;;;;;15.30;4.47;;;;;;;;;;5015098;28;20022;-76
2021/12/13 11:19:35;;;;;;;8.03;4.30;;;;;;;;;;5015221;28;20034;-77
2021/12/13 11:22:06;;;;;;;12.63;4.53;;;;;;;;;;5014685;28;20056;-77
2021/12/13 11:24:35;;;;;;;15.53;5.37;;;;;;;;;;5014889;28;20022;-77
2021/12/13 11:27:04;;;;;;;11.77;4.67;;;;;;;;;;5014827;28;20033;-77
2021/12/13 11:29:32;;;;;;;13.43;4.37;;;;;;;;;;5014487;28;20049;-76
2021/12/13 11:32:17;;;;;;;12.70;5.10;;;;;;;;;;5014422;28;20025;-76
2021/12/13 11:34:54;;;;;;;13.33;4.33;;;;;;;;;;5014494;28;20053;-77
2021/12/13 11:37:39;;;;;;;15.87;4.33;;;;;;;;;;5014454;28;20486;-78
2021/12/13 11:40:15;;;;;;;14.10;4.00;;;;;;;;;;5014631;28;20033;-77
2021/12/13 11:42:48;;;;;;;11.50;3.63;;;;;;;;;;5014173;28;20466;-77
2021/12/13 11:45:34;;;;;;;10.88;3.67;;;;;;;;;;5012796;28;20033;-76
2021/12/13 11:48:23;;;;;;;9.93;4.03;;;;;;;;;;5013945;28;20117;-77
2021/12/13 11:50:55;;;;;;;11.03;4.03;;;;;;;;;;5014181;28;20109;-76
2021/12/13 11:53:31;;;;;;;19.80;4.80;;;;;;;;;;5012910;28;20049;-77
2021/12/13 11:56:09;;;;;;;14.77;4.40;;;;;;;;;;5014220;28;20088;-77
2021/12/13 11:58:53;;;;;;;16.13;4.73;;;;;;;;;;5013741;28;21100;-75
2021/12/13 12:01:40;;;;;;;16.83;5.00;;;;;;;;;;5013775;28;20378;-77
2021/12/13 12:04:29;;;;;;;8.10;3.90;;;;;;;;;;5013773;28;20025;-77
2021/12/13 12:07:05;;;;;;;10.87;4.20;;;;;;;;;;5005978;28;20038;-81
2021/12/13 12:09:50;;;;;;;10.40;4.00;;;;;;;;;;5013772;28;20490;-76
2021/12/13 12:12:31;;;;;;;8.17;4.00;;;;;;;;;;5013720;28;20026;-78
2021/12/13 12:15:01;;;;;;;10.63;3.93;;;;;;;;;;5013749;28;20390;-78
2021/12/13 12:17:31;;;;;;;14.83;3.70;;;;;;;;;;5014019;28;20053;-79
2021/12/13 12:19:58;;;;;;;12.23;3.53;;;;;;;;;;5013764;28;20026;-78
2021/12/13 12:22:29;;;;;;;9.33;3.23;;;;;;;;;;5013236;28;20049;-76
2021/12/13 12:24:59;;;;;;;10.27;3.53;;;;;;;;;;5013711;28;20026;-78
2021/12/13 12:27:27;;;;;;;9.87;5.77;;;;;;;;;;5014160;28;20022;-80
2021/12/13 12:30:00;;;;;;;13.67;4.67;;;;;;;;;;5013607;28;20508;-79
2021/12/13 12:32:29;;;;;;;10.70;4.20;;;;;;;;;;5013852;28;20022;-80
2021/12/13 12:35:00;;;;;;;19.60;4.13;;;;;;;;;;5013903;28;20049;-78
2021/12/13 12:37:31;;;;;;;9.33;4.17;;;;;;;;;;5013922;28;20508;-76
2021/12/13 12:40:10;;;;;;;11.48;3.95;;;;;;;;;;5013589;28;20069;-78
2021/12/13 12:42:38;;;;;;;15.03;4.17;;;;;;;;;;5013481;28;20386;-79
2021/12/13 12:45:12;;;;;;;8.13;4.27;;;;;;;;;;5013543;28;20029;-83
2021/12/13 12:47:38;;;;;;;9.40;3.97;;;;;;;;;;5012428;28;20505;-77
2021/12/13 12:50:23;;;;;;;9.33;3.80;;;;;;;;;;5012382;28;20068;-76
2021/12/13 12:52:55;;;;;;;12.57;4.23;;;;;;;;;;5010387;28;20034;-79
2021/12/13 12:55:33;;;;;;;13.43;4.30;;;;;;;;;;5010723;28;20057;-80
2021/12/13 12:57:59;;;;;;;8.40;3.90;;;;;;;;;;5012707;28;20026;-79
2021/12/13 13:00:28;;;;;;;12.97;4.53;;;;;;;;;;5011901;28;20033;-79
2021/12/13 13:02:54;;;;;;;7.10;3.70;;;;;;;;;;5013230;28;20061;-79
2021/12/13 13:05:22;;;;;;;8.93;4.00;;;;;;;;;;5012913;28;20026;-78
2021/12/13 13:07:51;;;;;;;12.13;3.90;;;;;;;;;;5012963;28;20033;-78
2021/12/13 13:10:26;;;;;;;15.87;3.87;;;;;;;;;;5013324;28;20054;-78
2021/12/13 13:13:05;;;;;;;8.07;3.53;;;;;;;;;;5011679;28;20076;-77
2021/12/13 13:15:51;;;;;;;11.67;4.33;;;;;;;;;;5010634;28;20029;-78
2021/12/13 13:18:20;;;;;;;13.60;5.30;;;;;;;;;;5011656;28;20483;-79
2021/12/13 13:20:51;;;;;;;7.40;3.50;;;;;;;;;;5013199;28;20478;-78
2021/12/13 13:23:18;;;;;;;10.03;3.90;;;;;;;;;;5012936;28;20466;-78
2021/12/13 13:25:49;;;;;;;12.93;4.17;;;;;;;;;;5013114;28;20504;-77
2021/12/13 13:28:15;;;;;;;11.63;3.90;;;;;;;;;;5012023;28;20041;-78
2021/12/13 13:30:44;;;;;;;7.20;4.27;;;;;;;;;;5013199;28;20083;-77
2021/12/13 13:33:11;;;;;;;11.60;4.07;;;;;;;;;;5013345;28;20030;-77
2021/12/13 13:35:37;;;;;;;9.57;4.43;;;;;;;;;;5012979;28;20093;-77
2021/12/13 13:38:05;;;;;;;14.83;5.27;;;;;;;;;;5012999;28;20437;-79
2021/12/13 13:40:32;;;;;;;17.33;5.00;;;;;;;;;;5013224;28;20203;-74
2021/12/13 13:43:00;;;;;;;8.30;4.93;;;;;;;;;;5012899;28;20038;-77
2021/12/13 13:45:26;;;;;;;13.57;5.10;;;;;;;;;;5012583;28;20026;-77
2021/12/13 13:47:57;;;;;;;12.70;5.10;;;;;;;;;;5013142;28;20489;-77
2021/12/13 13:50:23;;;;;;;12.40;5.17;;;;;;;;;;5013136;28;20037;-76
2021/12/13 13:52:51;;;;;;;15.53;5.77;;;;;;;;;;5011616;28;20030;-74
2021/12/13 13:55:27;;;;;;;20.27;5.00;;;;;;;;;;5012944;28;20030;-73
2021/12/13 13:57:55;;;;;;;15.27;5.40;;;;;;;;;;5016579;28;20026;-77
2021/12/13 14:00:22;;;;;;;16.80;5.20;;;;;;;;;;5016291;28;20026;-77
2021/12/13 14:02:48;;;;;;;17.80;6.30;;;;;;;;;;5014992;28;20389;-77
2021/12/13 14:05:14;;;;;;;15.00;5.10;;;;;;;;;;5016378;28;20050;-75
2021/12/13 14:07:43;;;;;;;18.57;5.63;;;;;;;;;;5016434;28;20053;-77
2021/12/13 14:10:11;;;;;;;16.97;6.00;;;;;;;;;;5016326;28;20033;-78
2021/12/13 14:12:57;;;;;;;9.10;5.00;;;;;;;;;;5016214;28;20093;-76
2021/12/13 14:15:29;;;;;;;22.53;7.60;;;;;;;;;;5006018;28;20046;-79
2021/12/13 14:18:14;;;;;;;15.73;7.60;;;4.30;70.90;;;;;;5016341;28;20056;-75
2021/12/13 14:20:49;;;;;;;20.70;10.30;;;8.60;68.10;;;;;;5013349;28;20474;-75
2021/12/13 14:23:23;;;;;;;30.73;18.63;;;8.50;69.00;;;;;;5012991;28;20592;-75
2021/12/13 14:26:03;;;;;;;20.93;12.03;;;8.60;69.50;;;;;;5012380;28;20080;-74
2021/12/13 14:28:35;;;;;;;22.50;13.53;;;8.60;70.00;;;;;;5015491;28;20057;-74
2021/12/13 14:31:11;;;;;;;22.05;13.77;;;8.60;69.70;;;;;;5015773;28;20026;-74
2021/12/13 14:33:51;;;;;;;32.53;13.43;;;8.60;69.80;;;;;;5015589;28;20038;-73
2021/12/13 14:36:16;;;;;;;60.63;28.33;;;8.60;70.60;;;;;;5015469;28;20054;-75
2021/12/13 14:38:51;;;;;;;65.00;29.43;;;8.60;71.10;;;;;;5015538;28;20097;-76
2021/12/13 14:41:20;;;;;;;41.40;19.63;;;8.60;70.80;;;;;;5015582;28;20021;-75
2021/12/13 14:43:57;;;;;;;38.33;19.30;;;8.60;70.90;;;;;;5015008;28;20482;-75
2021/12/13 14:46:30;;;;;;;27.83;15.10;;;8.60;71.40;;;;;;5014491;28;20022;-79
2021/12/13 14:49:28;;;;;;;;;;;8.60;71.80;;;;;;5012954;28;20070;-79
2021/12/13 14:52:06;;;;;;;51.30;17.27;;;8.60;71.50;;;;;;4959804;28;19912;-78
2021/12/13 14:54:36;;;;;;;42.73;14.77;;;8.50;71.20;;;;;;5015378;28;20470;-79